Latest Weather Observations for Kununurra Airport

IDW60801

Issued at 3:32 pm WST Saturday 5 September 2015 (issued every 30 minutes, with the page automatically refreshed every 10 minutes)

About weather observations | Map of weather stations | Latest weather observations for WA | Other Formats
Station Details ID: 002056 Name: KUNUNURRA AERO Lat: -15.78 Lon: 128.71 Height: 44.0 m
Data from the previous 72 hours. | See also: Recent months at Kununurra Airport
Date/Time
WST
Temp
°C
App
Temp
°C
Dew
Point
Rel
Hum
%
Delta-T
°C
Wind Press
QNH
hPa
Press
MSL
hPa
Rain
since 9 am
mm
Dir
 
Spd
km/h
Gust
km/h
Spd
kts
Gust
kts
05/03:30pm 36.2 34.0 6.4 16 16.4 NNE 7 13 4 7 1012.2 1012.0 0.0
05/03:00pm 36.8 34.6 7.8 17 16.4 NW 9 15 5 8 1012.2 1012.0 0.0
05/02:30pm 36.3 34.4 7.4 17 16.2 E 7 13 4 7 1012.3 1012.1 0.0
05/02:00pm 36.5 34.2 7.5 17 16.3 ENE 9 17 5 9 1012.7 1012.5 0.0
05/01:30pm 35.8 34.2 8.6 19 15.5 NNE 7 17 4 9 1013.1 1012.9 0.0
05/01:00pm 36.2 34.1 9.7 20 15.4 NE 11 24 6 13 1013.4 1013.2 0.0
05/12:30pm 35.9 32.9 9.4 20 15.3 NNE 15 28 8 15 1013.9 1013.7 0.0
05/12:00pm 35.5 32.6 9.8 21 14.9 NNE 15 28 8 15 1014.6 1014.4 0.0
05/11:30am 34.8 31.1 9.3 21 14.6 NNE 19 24 10 13 1015.3 1015.1 0.0
05/11:00am 34.5 31.8 10.4 23 14.0 ENE 15 22 8 12 1016.0 1015.8 0.0
05/10:30am 34.5 30.9 10.4 23 14.0 ENE 20 28 11 15 1016.7 1016.5 0.0
05/10:00am 33.5 28.3 8.9 22 13.9 E 26 35 14 19 1017.2 1017.0 0.0
05/09:30am 33.0 31.8 11.5 27 12.6 E 9 17 5 9 1017.6 1017.4 0.0
05/09:00am 30.4 30.2 13.7 36 10.0 NE 7 15 4 8 1018.0 1017.8 0.0
05/08:30am 28.8 29.3 15.0 43 8.4 N 6 11 3 6 1018.2 1018.0 0.0
05/08:00am 27.9 28.8 16.2 49 7.2 NNW 6 7 3 4 1018.2 1018.0 0.0
05/07:30am 25.7 26.9 17.4 60 5.2 NW 7 9 4 5 1018.1 1017.9 0.0
05/07:00am 24.8 25.7 16.5 60 5.1 NW 7 9 4 5 1017.9 1017.7 0.0
05/06:30am 22.6 23.9 17.1 71 3.4 NW 6 7 3 4 1017.5 1017.3 0.0
05/06:00am 18.5 20.2 16.1 86 1.4 NNE 2 7 1 4 1017.0 1016.8 0.0
05/05:30am 17.7 19.1 14.4 81 1.9 CALM 0 0 0 0 1016.4 1016.2 0.0
05/05:00am 17.8 19.5 15.1 84 1.6 CALM 0 0 0 0 1016.1 1015.9 0.0
05/04:30am 18.6 20.4 15.5 82 1.8 CALM 0 0 0 0 1015.7 1015.5 0.0
05/04:00am 19.0 20.7 15.1 78 2.3 CALM 0 0 0 0 1015.4 1015.2 0.0
05/03:30am 19.5 20.7 15.8 79 2.2 ESE 4 6 2 3 1015.2 1015.0 0.0
05/03:00am 20.8 22.0 17.4 81 2.1 S 7 9 4 5 1015.3 1015.1 0.0
05/02:30am 19.8 20.4 15.2 75 2.7 SW 6 9 3 5 1015.2 1015.0 0.0
05/02:00am 20.6 22.6 16.0 75 2.8 CALM 0 7 0 4 1015.1 1014.9 0.0
05/01:30am 19.8 21.4 15.9 78 2.3 NNE 2 6 1 3 1015.3 1015.1 0.0
05/01:00am 20.9 22.9 15.9 73 3.0 CALM 0 0 0 0 1015.2 1015.0 0.0
05/12:30am 20.8 22.2 14.5 67 3.7 CALM 0 0 0 0 1015.3 1015.1 0.0
05/12:00am 21.6 23.2 15.0 66 3.9 CALM 0 0 0 0 1015.5 1015.3 0.0
 
Date/Time
WST
Temp
°C
App
Temp
°C
Dew
Point
Rel
Hum
%
Delta-T
°C
Wind Press
QNH
hPa
Press
MSL
hPa
Rain
since 9 am
mm
Dir
 
Spd
km/h
Gust
km/h
Spd
kts
Gust
kts
04/11:30pm 22.8 23.7 16.1 66 4.1 E 6 9 3 5 1015.6 1015.4 0.0
04/11:00pm 21.8 22.2 15.2 66 3.9 N 7 11 4 6 1015.7 1015.5 0.0
04/10:30pm 22.4 23.3 16.7 70 3.5 ENE 7 11 4 6 1016.0 1015.8 0.0
04/10:00pm 22.4 24.2 15.5 65 4.1 CALM 0 0 0 0 1016.1 1015.9 0.0
04/09:30pm 23.6 25.4 15.6 61 4.8 CALM 0 0 0 0 1016.3 1016.1 0.0
04/09:00pm 23.4 24.5 15.7 62 4.6 ENE 4 11 2 6 1016.3 1016.1 0.0
04/08:30pm 24.6 26.1 14.7 54 5.9 CALM 0 0 0 0 1016.3 1016.1 0.0
04/08:00pm 24.7 24.8 14.5 53 6.1 N 7 7 4 4 1016.2 1016.0 0.0
04/07:30pm 26.4 28.1 15.1 49 6.8 CALM 0 4 0 2 1016.0 1015.8 0.0
04/07:00pm 27.8 28.5 15.5 47 7.5 NW 6 9 3 5 1015.6 1015.4 0.0
04/06:30pm 28.5 27.8 15.4 45 8.0 N 13 17 7 9 1015.2 1015.0 0.0
04/06:00pm 30.0 28.9 15.3 41 9.0 N 15 19 8 10 1014.5 1014.3 0.0
04/05:30pm 30.9 29.6 14.9 37 9.8 N 15 20 8 11 1014.1 1013.9 0.0
04/05:00pm 32.9 31.1 14.5 33 11.3 N 17 24 9 13 1013.7 1013.5 0.0
04/04:30pm 34.6 31.7 14.0 29 12.6 N 22 30 12 16 1013.3 1013.1 0.0
04/04:00pm 36.9 35.5 8.7 18 16.1 NW 6 9 3 5 1013.0 1012.8 0.0
04/03:30pm 36.5 34.4 8.4 18 16.0 NNE 9 17 5 9 1012.9 1012.7 0.0
04/03:00pm 37.4 35.3 8.2 17 16.6 SE 9 20 5 11 1012.6 1012.4 0.0
04/02:30pm 36.5 33.5 7.5 17 16.3 NE 13 20 7 11 1012.9 1012.7 0.0
04/02:00pm 37.0 33.8 7.0 16 16.8 ENE 13 20 7 11 1013.2 1013.0 0.0
04/01:30pm 37.2 33.7 7.2 16 16.8 E 15 24 8 13 1013.5 1013.3 0.0
04/01:00pm 37.1 32.2 7.1 16 16.8 SE 22 33 12 18 1013.8 1013.6 0.0
04/12:30pm 36.9 32.4 7.0 16 16.7 SE 20 30 11 16 1014.2 1014.0 0.0
04/12:00pm 37.1 33.0 6.2 15 17.0 E 17 26 9 14 1014.9 1014.7 0.0
04/11:30am 36.5 33.2 6.6 16 16.6 ENE 13 24 7 13 1015.4 1015.2 0.0
04/11:00am 35.1 31.4 6.4 17 15.7 E 15 24 8 13 1016.1 1015.9 0.0
04/10:30am 34.6 30.5 6.0 17 15.5 ENE 17 24 9 13 1016.7 1016.5 0.0
04/10:00am 33.5 29.7 5.9 18 14.9 E 15 24 8 13 1017.1 1016.9 0.0
04/09:30am 33.4 29.0 5.0 17 15.1 E 17 24 9 13 1017.4 1017.2 0.0
04/09:00am 32.1 28.1 4.8 18 14.3 E 15 22 8 12 1017.6 1017.4 0.0
04/08:30am 30.9 25.8 3.0 17 14.1 ESE 19 30 10 16 1017.6 1017.4 0.0
04/08:00am 29.6 27.2 6.9 24 12.2 SE 9 13 5 7 1017.5 1017.3 0.0
04/07:30am 27.7 26.0 10.0 33 9.9 SSE 9 13 5 7 1017.4 1017.2 0.0
04/07:00am 25.9 25.6 10.1 37 8.8 SSE 2 7 1 4 1017.2 1017.0 0.0
04/06:30am 22.5 22.7 10.6 47 6.6 CALM 0 0 0 0 1017.1 1016.9 0.0
04/06:00am 17.6 18.3 12.3 71 2.9 CALM 0 0 0 0 1016.8 1016.6 0.0
04/05:30am 16.3 16.8 11.5 73 2.6 CALM 0 0 0 0 1016.4 1016.2 0.0
04/05:00am 16.8 17.5 12.1 74 2.6 CALM 0 0 0 0 1016.0 1015.8 0.0
04/04:30am 17.4 17.8 11.2 67 3.4 CALM 0 0 0 0 1015.7 1015.5 0.0
04/04:00am 17.8 18.2 11.4 66 3.5 CALM 0 0 0 0 1015.4 1015.2 0.0
04/03:30am 18.2 18.1 10.8 62 4.0 ENE 2 9 1 5 1015.0 1014.8 0.0
04/03:00am 18.9 19.3 11.2 61 4.2 CALM 0 0 0 0 1014.9 1014.7 0.0
04/02:30am 18.9 18.9 11.2 61 4.2 NNE 2 6 1 3 1014.7 1014.5 0.0
04/02:00am 20.9 19.8 10.1 50 5.8 ENE 6 7 3 4 1014.7 1014.5 0.0
04/01:30am 20.7 20.0 11.9 57 4.9 E 7 11 4 6 1014.4 1014.2 0.0
04/01:00am 24.6 21.9 9.0 37 8.4 S 13 15 7 8 1014.3 1014.1 0.0
04/12:30am 21.0 20.4 13.4 62 4.4 SE 9 11 5 6 1014.4 1014.2 0.0
04/12:00am 18.5 18.7 12.9 70 3.1 ESE 4 9 2 5 1014.7 1014.5 0.0
 
Date/Time
WST
Temp
°C
App
Temp
°C
Dew
Point
Rel
Hum
%
Delta-T
°C
Wind Press
QNH
hPa
Press
MSL
hPa
Rain
since 9 am
mm
Dir
 
Spd
km/h
Gust
km/h
Spd
kts
Gust
kts
03/11:30pm 19.8 19.9 12.6 63 4.1 S 4 7 2 4 1015.1 1014.9 0.0
03/11:00pm 19.8 20.1 12.3 62 4.2 ENE 2 7 1 4 1015.6 1015.4 0.0
03/10:30pm 20.7 21.1 11.3 55 5.2 CALM 0 0 0 0 1015.7 1015.5 0.0
03/10:00pm 20.8 21.1 10.9 53 5.4 CALM 0 0 0 0 1015.9 1015.7 0.0
03/09:30pm 21.2 21.8 11.8 55 5.3 CALM 0 0 0 0 1015.8 1015.6 0.0
03/09:00pm 22.4 22.8 12.6 54 5.6 NW 2 7 1 4 1015.8 1015.6 0.0
03/08:30pm 22.7 22.1 12.3 52 5.9 NW 7 9 4 5 1015.7 1015.5 0.0
03/08:00pm 25.0 24.3 14.2 51 6.4 ESE 11 15 6 8 1015.5 1015.3 0.0
03/07:30pm 23.9 24.2 13.4 51 6.1 SE 4 11 2 6 1015.2 1015.0 0.0
03/07:00pm 24.6 25.6 13.2 49 6.6 CALM 0 0 0 0 1014.9 1014.7 0.0
03/06:30pm 26.1 26.7 11.8 41 8.2 CALM 0 0 0 0 1014.5 1014.3 0.0
03/06:00pm 28.2 28.5 14.4 42 8.3 SE 6 7 3 4 1014.1 1013.9 0.0
03/05:30pm 30.1 30.8 12.1 33 10.5 CALM 0 0 0 0 1013.6 1013.4 0.0
03/05:00pm 34.3 32.6 7.4 19 14.9 SSW 6 7 3 4 1013.4 1013.2 0.0
03/04:30pm 35.5 33.0 4.9 15 16.4 SSW 7 9 4 5 1013.3 1013.1 0.0
03/04:00pm 35.8 33.2 4.2 14 16.8 S 7 13 4 7 1013.2 1013.0 0.0
03/03:30pm 36.8 34.5 2.8 12 17.8 SW 4 9 2 5 1013.0 1012.8 0.0
03/03:00pm 36.3 34.1 3.5 13 17.3 SE 4 9 2 5 1013.1 1012.9 0.0
03/02:30pm 36.0 32.3 2.1 12 17.4 SSE 11 17 6 9 1013.1 1012.9 0.0
03/02:00pm 36.4 32.7 2.4 12 17.6 SE 11 17 6 9 1013.3 1013.1 0.0
03/01:30pm 35.7 31.2 1.9 12 17.3 SE 15 20 8 11 1013.7 1013.5 0.0
03/01:00pm 35.1 30.5 1.5 12 17.0 ESE 15 24 8 13 1014.2 1014.0 0.0
03/12:30pm 35.0 30.8 1.4 12 17.0 ENE 13 20 7 11 1014.7 1014.5 0.0
03/12:00pm 34.7 30.8 1.1 12 16.9 ESE 11 22 6 12 1015.2 1015.0 0.0
03/11:30am 33.9 28.8 0.5 12 16.5 ESE 17 28 9 15 1015.8 1015.6 0.0
03/11:00am 33.5 28.3 0.2 12 16.3 E 17 28 9 15 1016.4 1016.2 0.0
03/10:30am 33.4 27.1 1.3 13 16.1 E 24 32 13 17 1017.0 1016.8 0.0
03/10:00am 33.0 27.0 0.9 13 15.9 ESE 22 32 12 17 1017.3 1017.1 0.0
03/09:30am 31.9 26.8 3.0 16 14.7 SE 19 26 10 14 1017.6 1017.4 0.0
03/09:00am 31.7 26.5 3.7 17 14.4 ESE 20 26 11 14 1017.7 1017.5 0.0
03/08:30am 30.2 25.1 3.3 18 13.6 SE 19 28 10 15 1017.7 1017.5 0.0
03/08:00am 29.0 25.3 6.4 24 12.0 SSE 15 20 8 11 1017.7 1017.5 0.0
03/07:30am 28.1 25.3 8.4 29 10.8 SSE 13 19 7 10 1017.5 1017.3 0.0
03/07:00am 25.8 23.2 10.8 39 8.4 SSE 15 19 8 10 1017.2 1017.0 0.0
03/06:56am 25.8 23.8 11.6 41 8.1 SSE 13 17 7 9 1017.1 1016.9 0.0
03/06:55am 26.5 25.8 15.5 50 6.7 SSE 13 17 7 9 1012.6 1012.4 0.0
03/06:30am 24.3 23.6 14.4 54 5.9 S 11 15 6 8 1016.9 1016.7 0.0
03/06:00am 22.0 22.5 16.5 71 3.3 SE 9 15 5 8 1016.5 1016.3 0.0
03/05:30am 19.7 19.8 15.6 77 2.4 SE 9 9 5 5 1015.9 1015.7 0.0
03/05:00am 18.7 19.6 15.2 80 2.1 SE 4 9 2 5 1015.4 1015.2 0.0
03/04:30am 18.4 18.6 14.1 76 2.5 ESE 6 7 3 4 1014.7 1014.5 0.0
03/04:00am 19.5 20.1 14.3 72 3.0 E 4 6 2 3 1014.4 1014.2 0.0
03/03:30am 19.2 19.3 14.0 72 3.0 E 6 7 3 4 1014.2 1014.0 0.0
03/03:00am 19.3 19.1 13.7 70 3.2 NNW 7 9 4 5 1014.4 1014.2 0.0
03/02:30am 19.7 20.1 13.6 68 3.5 SE 4 6 2 3 1014.4 1014.2 0.0
03/02:00am 21.5 21.5 13.7 61 4.5 WSW 6 9 3 5 1014.4 1014.2 0.0
03/01:30am 22.7 21.5 14.0 58 5.1 ESE 13 17 7 9 1014.6 1014.4 0.0
03/01:00am 23.0 23.3 14.6 59 5.0 SE 6 9 3 5 1014.5 1014.3 0.0
03/12:30am 22.2 21.8 15.1 64 4.2 ESE 11 15 6 8 1014.6 1014.4 0.0
03/12:00am 20.7 19.9 13.9 65 3.9 WSW 11 13 6 7 1014.6 1014.4 0.0
 
Date/Time
WST
Temp
°C
App
Temp
°C
Dew
Point
Rel
Hum
%
Delta-T
°C
Wind Press
QNH
hPa
Press
MSL
hPa
Rain
since 9 am
mm
Dir
 
Spd
km/h
Gust
km/h
Spd
kts
Gust
kts
02/11:30pm 20.7 20.0 13.2 62 4.3 WNW 9 11 5 6 1015.1 1014.9 0.0
02/11:00pm 21.7 21.5 13.6 60 4.7 W 7 9 4 5 1015.5 1015.3 0.0
02/10:30pm 22.4 22.3 13.2 56 5.3 N 6 7 3 4 1015.4 1015.2 0.0
02/10:00pm 23.2 22.9 12.8 52 6.0 NW 6 7 3 4 1015.3 1015.1 0.0
02/09:30pm 24.2 21.9 13.1 50 6.4 NNE 17 17 9 9 1015.2 1015.0 0.0
02/09:00pm 25.0 24.9 13.2 48 6.9 N 6 13 3 7 1015.1 1014.9 0.0
02/08:30pm 25.2 25.1 13.4 48 6.9 N 6 7 3 4 1014.8 1014.6 0.0
02/08:00pm 25.4 23.8 13.9 49 6.8 NNE 15 17 8 9 1014.3 1014.1 0.0
02/07:30pm 27.1 24.9 13.4 42 8.1 N 17 19 9 10 1014.1 1013.9 0.0
02/07:00pm 28.6 28.2 12.9 38 9.3 NNW 7 11 4 6 1013.7 1013.5 0.0
02/06:30pm 27.7 27.3 12.9 40 8.7 NNE 7 11 4 6 1013.1 1012.9 0.0
02/06:00pm 30.6 28.9 12.5 33 10.7 SSE 13 13 7 7 1012.4 1012.2 0.0
02/05:30pm 31.0 29.7 11.4 30 11.4 SE 9 9 5 5 1012.2 1012.0 0.0
02/05:00pm 33.6 32.2 9.6 23 13.7 SE 7 9 4 5 1012.0 1011.7 0.0
02/04:30pm 35.1 32.9 8.0 19 15.2 SE 9 11 5 6 1011.8 1011.5 0.0
02/04:00pm 35.4 32.7 7.5 18 15.6 SE 11 13 6 7 1011.5 1011.2 0.0

Other Formats:

Comma delimited format used in spreadsheet applications
http://www.bom.gov.au/fwo/IDW60801/IDW60801.94216.axf

JavaScript Object Notation format (JSON) in row-major order
http://www.bom.gov.au/fwo/IDW60801/IDW60801.94216.json